createdAt,value
2023-04-21T00:01:59.262Z,24.00
2023-04-21T00:04:26.749Z,22.37
2023-04-21T00:06:54.593Z,23.80
2023-04-21T00:09:22.287Z,24.27
2023-04-21T00:11:49.394Z,23.67
2023-04-21T00:14:16.381Z,23.13
2023-04-21T00:16:43.382Z,23.70
2023-04-21T00:19:10.548Z,23.95
2023-04-21T00:21:37.798Z,25.63
2023-04-21T00:24:05.682Z,24.63
2023-04-21T00:26:32.648Z,26.00
2023-04-21T00:28:59.595Z,24.47
2023-04-21T00:31:26.891Z,25.33
2023-04-21T00:33:54.089Z,25.93
2023-04-21T00:36:21.271Z,28.23
2023-04-21T00:38:48.303Z,23.10
2023-04-21T00:41:15.284Z,23.10
2023-04-21T00:44:06.121Z,22.53
2023-04-21T00:46:34.858Z,23.07
2023-04-21T00:49:06.960Z,23.80
2023-04-21T00:51:36.396Z,24.50
2023-04-21T00:54:06.844Z,26.27
2023-04-21T00:56:35.985Z,24.50
2023-04-21T00:59:04.020Z,23.93
2023-04-21T01:01:34.420Z,27.10
2023-04-21T01:04:03.220Z,27.60
2023-04-21T01:06:34.542Z,28.00
2023-04-21T01:09:03.268Z,25.67
2023-04-21T01:11:31.475Z,30.47
2023-04-21T01:13:58.520Z,24.67
2023-04-21T01:16:25.586Z,27.33
2023-04-21T01:18:56.234Z,27.47
2023-04-21T01:21:23.751Z,29.57
2023-04-21T01:23:51.227Z,29.10
2023-04-21T01:26:21.356Z,27.77
2023-04-21T01:28:48.970Z,26.57
2023-04-21T01:31:17.574Z,26.95
2023-04-21T01:33:45.627Z,26.27
2023-04-21T01:36:12.880Z,27.30
2023-04-21T01:38:41.713Z,28.07
2023-04-21T01:41:09.942Z,27.63
2023-04-21T01:43:37.689Z,29.80
2023-04-21T01:46:05.988Z,30.70
2023-04-21T01:48:33.042Z,30.10
2023-04-21T01:51:00.032Z,31.17
2023-04-21T01:53:27.060Z,30.33
2023-04-21T01:55:54.224Z,30.20
2023-04-21T01:58:22.105Z,28.57
2023-04-21T02:00:49.183Z,28.93
2023-04-21T02:03:16.638Z,31.27
2023-04-21T02:05:43.782Z,29.00
2023-04-21T02:08:10.943Z,28.50
2023-04-21T02:10:37.983Z,28.77
2023-04-21T02:13:05.012Z,30.73
2023-04-21T02:15:32.116Z,29.17
2023-04-21T02:17:59.180Z,30.40
2023-04-21T02:20:26.572Z,29.33
2023-04-21T02:22:53.674Z,26.80
2023-04-21T02:25:20.677Z,29.07
2023-04-21T02:27:47.678Z,29.70
2023-04-21T02:30:14.847Z,29.30
2023-04-21T02:32:42.577Z,31.43
2023-04-21T02:35:10.053Z,29.20
2023-04-21T02:37:37.119Z,29.03
2023-04-21T02:40:05.695Z,31.23
2023-04-21T02:42:34.835Z,31.50
2023-04-21T02:45:01.923Z,32.43
2023-04-21T02:47:29.037Z,30.57
2023-04-21T02:49:56.189Z,30.27
2023-04-21T02:52:23.258Z,31.27
2023-04-21T02:54:50.455Z,32.53
2023-04-21T02:57:17.522Z,31.97
2023-04-21T02:59:44.695Z,31.50
2023-04-21T03:02:11.752Z,32.40
2023-04-21T03:04:39.423Z,30.20
2023-04-21T03:07:11.396Z,32.67
2023-04-21T03:09:38.453Z,31.90
2023-04-21T03:12:05.716Z,34.30
2023-04-21T03:14:32.735Z,33.83
2023-04-21T03:16:59.790Z,34.30
2023-04-21T03:19:26.750Z,34.50
2023-04-21T03:21:53.773Z,34.63
2023-04-21T03:24:21.462Z,32.63
2023-04-21T03:26:48.594Z,33.47
2023-04-21T03:29:15.599Z,34.47
2023-04-21T03:31:42.755Z,34.93
2023-04-21T03:34:09.971Z,34.97
2023-04-21T03:36:36.919Z,34.17
2023-04-21T03:39:13.189Z,36.90
2023-04-21T03:41:46.621Z,36.47
2023-04-21T03:44:13.734Z,35.70
2023-04-21T03:46:40.764Z,36.00
2023-04-21T03:49:07.754Z,39.00
2023-04-21T03:51:34.736Z,39.23
2023-04-21T03:54:01.775Z,38.10
2023-04-21T03:56:28.776Z,37.40
2023-04-21T03:58:56.998Z,35.03
2023-04-21T04:01:23.984Z,38.73
2023-04-21T04:03:51.180Z,37.23
2023-04-21T04:06:18.350Z,40.50
2023-04-21T04:08:45.585Z,38.63
2023-04-21T04:11:12.597Z,35.83
2023-04-21T04:13:39.584Z,42.67
2023-04-21T04:16:07.474Z,39.93
2023-04-21T04:18:34.598Z,42.00
2023-04-21T04:21:08.550Z,37.37
2023-04-21T04:23:35.830Z,40.77
2023-04-21T04:26:05.720Z,41.55
2023-04-21T04:28:35.865Z,39.35
2023-04-21T04:31:03.276Z,39.23
2023-04-21T04:33:30.626Z,40.30
2023-04-21T04:35:58.364Z,40.85
2023-04-21T04:38:25.465Z,40.57
2023-04-21T04:40:57.630Z,46.85
2023-04-21T04:43:25.535Z,46.35
2023-04-21T04:45:54.088Z,46.07
2023-04-21T04:48:21.213Z,51.73
2023-04-21T04:50:48.365Z,54.97
2023-04-21T04:53:15.929Z,56.23
2023-04-21T04:55:43.189Z,56.57
2023-04-21T04:58:10.387Z,60.23
2023-04-21T05:00:37.726Z,60.07
2023-04-21T05:03:05.477Z,54.53
2023-04-21T05:05:32.903Z,61.37
2023-04-21T05:07:59.960Z,61.40
2023-04-21T05:10:27.009Z,60.40
2023-04-21T05:12:54.197Z,60.90
2023-04-21T05:15:22.687Z,61.03
2023-04-21T05:17:49.751Z,69.93
2023-04-21T05:20:16.825Z,60.72
2023-04-21T05:22:43.843Z,58.60
2023-04-21T05:25:15.887Z,59.22
2023-04-21T05:27:43.654Z,61.03
2023-04-21T05:30:11.482Z,61.70
2023-04-21T05:32:38.651Z,58.13
2023-04-21T05:35:06.592Z,60.25
2023-04-21T05:37:33.956Z,56.13
2023-04-21T05:40:01.244Z,56.78
2023-04-21T05:42:28.345Z,55.38
2023-04-21T05:44:55.425Z,54.80
2023-04-21T05:47:22.448Z,57.47
2023-04-21T05:49:56.369Z,55.58
2023-04-21T05:52:23.365Z,50.67
2023-04-21T05:54:50.572Z,52.45
2023-04-21T05:57:17.974Z,53.05
2023-04-21T05:59:45.264Z,51.05
2023-04-21T06:02:12.565Z,51.55
2023-04-21T06:04:39.894Z,47.25
2023-04-21T06:07:08.267Z,51.08
2023-04-21T06:09:36.286Z,44.78
2023-04-21T06:12:03.980Z,47.15
2023-04-21T06:14:31.237Z,45.72
2023-04-21T06:16:58.656Z,44.92
2023-04-21T06:19:25.912Z,46.63
2023-04-21T06:21:53.079Z,46.72
2023-04-21T06:24:25.332Z,44.92
2023-04-21T06:26:53.868Z,43.63
2023-04-21T06:29:21.143Z,46.38
2023-04-21T06:31:48.614Z,40.85
2023-04-21T06:34:16.363Z,42.45
2023-04-21T06:36:43.596Z,43.63
2023-04-21T06:39:11.073Z,41.47
2023-04-21T06:41:38.184Z,44.38
2023-04-21T06:44:05.243Z,39.65
2023-04-21T06:46:32.412Z,40.70
2023-04-21T06:48:59.477Z,42.00
2023-04-21T06:51:26.825Z,42.72
2023-04-21T06:53:54.957Z,41.33
2023-04-21T06:56:22.039Z,40.22
2023-04-21T06:58:49.242Z,39.75
2023-04-21T07:01:16.433Z,39.05
2023-04-21T07:03:43.694Z,38.85
2023-04-21T07:06:11.015Z,35.85
2023-04-21T07:08:38.446Z,35.10
2023-04-21T07:11:05.742Z,38.22
2023-04-21T07:13:32.741Z,34.25
2023-04-21T07:15:59.764Z,32.38
2023-04-21T07:18:26.883Z,32.90
2023-04-21T07:20:55.520Z,34.78
2023-04-21T07:23:22.512Z,32.00
2023-04-21T07:25:49.680Z,27.77
2023-04-21T07:28:16.956Z,31.17
2023-04-21T07:30:44.094Z,28.23
2023-04-21T07:33:11.729Z,25.38
2023-04-21T07:35:38.755Z,27.58
2023-04-21T07:38:06.301Z,30.13
2023-04-21T07:40:33.745Z,28.38
2023-04-21T07:43:00.746Z,29.58
2023-04-21T07:45:27.834Z,28.70
2023-04-21T07:47:55.093Z,29.45
2023-04-21T07:50:22.238Z,28.58
2023-04-21T07:52:49.309Z,30.17
2023-04-21T07:55:16.600Z,28.20
2023-04-21T07:57:43.710Z,27.98
2023-04-21T08:00:12.005Z,28.00
2023-04-21T08:02:39.331Z,27.85
2023-04-21T08:05:07.190Z,26.85
2023-04-21T08:07:34.256Z,23.67
2023-04-21T08:10:02.613Z,25.58
2023-04-21T08:12:30.118Z,21.98
2023-04-21T08:14:57.145Z,24.20
2023-04-21T08:17:24.439Z,22.13
2023-04-21T08:19:52.593Z,23.17
2023-04-21T08:22:19.739Z,25.25
2023-04-21T08:24:46.827Z,25.35
2023-04-21T08:27:13.953Z,21.30
2023-04-21T08:29:41.116Z,22.02
2023-04-21T08:32:08.635Z,21.65
2023-04-21T08:34:35.912Z,22.75
2023-04-21T08:37:03.022Z,23.15
2023-04-21T08:39:30.090Z,22.30
2023-04-21T08:41:59.422Z,19.23
2023-04-21T08:44:26.756Z,21.02
2023-04-21T08:46:56.950Z,20.77
2023-04-21T08:49:29.270Z,30.55
2023-04-21T08:51:56.316Z,19.23
2023-04-21T08:54:23.351Z,20.75
2023-04-21T08:56:50.600Z,19.67
2023-04-21T08:59:18.276Z,19.88
2023-04-21T09:02:19.729Z,20.10
2023-04-21T09:04:54.818Z,16.50
2023-04-21T09:07:41.572Z,16.73
2023-04-21T09:10:09.187Z,16.42
2023-04-21T09:12:40.812Z,16.60
2023-04-21T09:15:12.606Z,16.40
2023-04-21T09:17:39.645Z,21.05
2023-04-21T09:20:20.041Z,17.02
2023-04-21T09:22:51.617Z,16.60
2023-04-21T09:25:22.717Z,16.65
2023-04-21T09:27:49.827Z,15.90
2023-04-21T09:30:20.336Z,17.73
2023-04-21T09:32:47.623Z,17.98
2023-04-21T09:35:14.766Z,17.65
2023-04-21T09:37:44.731Z,18.33
2023-04-21T09:40:17.792Z,17.48
2023-04-21T09:42:46.582Z,16.60
2023-04-21T09:47:51.738Z,15.20
2023-04-21T09:50:39.307Z,17.35
2023-04-21T09:53:16.986Z,15.82
2023-04-21T09:55:47.941Z,16.08
2023-04-21T09:58:18.987Z,17.60
2023-04-21T10:00:46.925Z,16.60
2023-04-21T10:03:17.303Z,15.48
2023-04-21T10:05:44.914Z,15.98
2023-04-21T10:08:12.666Z,14.70
2023-04-21T10:10:40.511Z,20.10
2023-04-21T10:13:17.360Z,14.07
2023-04-21T10:15:44.647Z,16.10
2023-04-21T10:18:23.282Z,12.63
2023-04-21T10:21:01.797Z,12.52
2023-04-21T10:23:43.948Z,12.73
2023-04-21T10:26:19.693Z,15.15
2023-04-21T10:28:59.535Z,14.32
2023-04-21T10:31:36.901Z,13.02
2023-04-21T10:34:09.738Z,13.10
2023-04-21T10:36:48.494Z,13.73
2023-04-21T10:39:50.779Z,12.88
2023-04-21T10:42:20.843Z,16.40
2023-04-21T10:44:56.844Z,13.13
2023-04-21T10:47:44.488Z,12.75
2023-04-21T10:50:24.066Z,13.85
2023-04-21T10:53:11.438Z,15.35
2023-04-21T10:55:39.527Z,13.93
2023-04-21T10:58:11.705Z,14.43
2023-04-21T11:00:39.411Z,13.43
2023-04-21T11:03:08.249Z,14.77
2023-04-21T11:05:38.923Z,14.02
2023-04-21T11:08:11.695Z,13.27
2023-04-21T11:10:55.398Z,12.90
2023-04-21T11:13:33.480Z,13.20
2023-04-21T11:16:06.891Z,12.95
2023-04-21T11:18:42.349Z,13.27
2023-04-21T11:21:22.107Z,12.88
2023-04-21T11:23:57.022Z,12.55
2023-04-21T11:26:33.373Z,12.25
2023-04-21T11:29:06.212Z,13.80
2023-04-21T11:31:34.127Z,13.90
2023-04-21T11:34:02.585Z,12.20
2023-04-21T11:36:29.983Z,10.73
2023-04-21T11:38:57.048Z,11.82
2023-04-21T11:41:24.675Z,12.60
2023-04-21T11:43:52.945Z,11.10
2023-04-21T11:46:28.621Z,11.40
2023-04-21T11:49:02.200Z,10.48
2023-04-21T11:51:39.714Z,10.95
2023-04-21T11:54:12.201Z,9.70
2023-04-21T11:56:43.046Z,9.00
2023-04-21T11:59:15.965Z,9.00
2023-04-21T12:01:45.275Z,9.82
2023-04-21T12:04:17.724Z,8.60
2023-04-21T12:06:47.005Z,9.60
2023-04-21T12:09:19.640Z,9.90
2023-04-21T12:11:53.773Z,9.20
2023-04-21T12:14:24.058Z,9.32
2023-04-21T12:16:57.252Z,10.20
2023-04-21T12:19:50.825Z,12.88
2023-04-21T12:22:18.919Z,10.95
2023-04-21T12:24:46.777Z,9.00
2023-04-21T12:27:14.320Z,9.70
2023-04-21T12:29:42.007Z,10.57
2023-04-21T12:32:10.240Z,12.77
2023-04-21T12:34:37.668Z,9.40
2023-04-21T12:37:05.205Z,10.98
2023-04-21T12:39:34.161Z,11.88
2023-04-21T12:42:01.847Z,11.27
2023-04-21T12:44:28.884Z,10.95
2023-04-21T12:46:57.119Z,10.77
2023-04-21T12:49:25.616Z,10.43
2023-04-21T12:51:52.859Z,11.80
2023-04-21T12:54:19.855Z,12.15
2023-04-21T12:56:46.977Z,11.75
2023-04-21T12:59:14.095Z,11.32
2023-04-21T13:01:44.887Z,13.57
2023-04-21T13:04:12.549Z,15.57
2023-04-21T13:06:40.669Z,12.75
2023-04-21T13:09:09.226Z,13.48
2023-04-21T13:11:36.585Z,12.65
2023-04-21T13:14:04.353Z,12.05
2023-04-21T13:16:32.033Z,12.73
2023-04-21T13:18:59.314Z,12.80
2023-04-21T13:21:26.671Z,11.40
2023-04-21T13:23:53.977Z,12.40
2023-04-21T13:26:21.527Z,10.40
2023-04-21T13:28:48.729Z,8.70
2023-04-21T13:31:16.329Z,11.27
2023-04-21T13:33:43.565Z,13.60
2023-04-21T13:36:12.830Z,9.98
2023-04-21T13:38:43.079Z,9.90
2023-04-21T13:41:10.335Z,9.98
2023-04-21T13:43:37.519Z,9.98
2023-04-21T13:46:05.841Z,13.52
2023-04-21T13:48:33.102Z,10.18
2023-04-21T13:51:00.911Z,10.48
2023-04-21T13:53:27.925Z,10.77
2023-04-21T13:55:57.073Z,8.68
2023-04-21T13:58:24.246Z,9.13
2023-04-21T14:00:51.452Z,11.43
2023-04-21T14:03:19.264Z,10.95
2023-04-21T14:05:46.717Z,9.55
2023-04-21T14:08:13.943Z,9.95
2023-04-21T14:10:41.040Z,14.00
2023-04-21T14:13:08.836Z,10.10
2023-04-21T14:15:38.261Z,10.23
2023-04-21T14:18:05.701Z,10.00
2023-04-21T14:20:33.006Z,11.13
2023-04-21T14:23:00.016Z,11.00
2023-04-21T14:25:27.264Z,11.45
2023-04-21T14:27:54.380Z,9.80
2023-04-21T14:30:21.600Z,9.98
2023-04-21T14:32:48.940Z,13.52
2023-04-21T14:35:16.214Z,13.52
2023-04-21T14:37:43.320Z,10.40
2023-04-21T14:40:10.885Z,10.63
2023-04-21T14:42:37.947Z,27.90
2023-04-21T14:45:05.729Z,12.15
2023-04-21T14:47:33.281Z,13.88
2023-04-21T14:50:00.765Z,16.63
2023-04-21T14:52:27.898Z,14.68
2023-04-21T14:54:54.976Z,16.75
2023-04-21T14:57:22.201Z,16.25
2023-04-21T14:59:51.594Z,14.35
2023-04-21T15:02:20.835Z,13.13
2023-04-21T15:04:48.473Z,14.65
2023-04-21T15:07:18.784Z,13.07
2023-04-21T15:09:50.985Z,13.50
2023-04-21T15:12:18.228Z,12.15
2023-04-21T15:14:45.270Z,10.73
2023-04-21T15:17:12.301Z,11.35
2023-04-21T15:19:39.375Z,13.45
2023-04-21T15:22:06.547Z,12.20
2023-04-21T15:24:33.587Z,13.65
2023-04-21T15:27:02.280Z,10.13
2023-04-21T15:29:29.453Z,9.93
2023-04-21T15:31:56.674Z,11.50
2023-04-21T15:34:23.670Z,9.90
2023-04-21T15:36:50.767Z,8.77
2023-04-21T15:39:17.990Z,9.88
2023-04-21T15:41:45.164Z,8.82
2023-04-21T15:44:12.254Z,8.32
2023-04-21T15:46:39.398Z,11.15
2023-04-21T15:49:06.930Z,8.27
2023-04-21T15:51:35.606Z,8.68
2023-04-21T15:54:03.905Z,8.15
2023-04-21T15:56:30.951Z,8.82
2023-04-21T15:58:58.075Z,8.32
2023-04-21T16:01:25.321Z,9.18
2023-04-21T16:03:54.873Z,7.25
2023-04-21T16:06:24.039Z,6.65
2023-04-21T16:08:51.536Z,7.07
2023-04-21T16:11:18.698Z,7.47
2023-04-21T16:13:45.714Z,8.05
2023-04-21T16:16:12.792Z,6.38
2023-04-21T16:18:39.923Z,6.93
2023-04-21T16:21:06.991Z,9.88
2023-04-21T16:23:34.045Z,9.48
2023-04-21T16:26:02.143Z,7.82
2023-04-21T16:28:29.354Z,8.55
2023-04-21T16:30:56.501Z,7.97
2023-04-21T16:33:23.681Z,8.20
2023-04-21T16:35:53.904Z,6.72
2023-04-21T16:38:23.378Z,7.78
2023-04-21T16:40:50.433Z,8.50
2023-04-21T16:43:17.522Z,10.15
2023-04-21T16:45:44.579Z,12.32
2023-04-21T16:48:12.041Z,9.52
2023-04-21T16:50:39.297Z,6.72
2023-04-21T16:53:06.763Z,7.10
2023-04-21T16:55:33.775Z,7.88
2023-04-21T16:58:00.882Z,6.88
2023-04-21T17:00:30.167Z,7.50
2023-04-21T17:02:57.702Z,8.68
2023-04-21T17:05:25.018Z,8.05
2023-04-21T17:07:52.256Z,9.10
2023-04-21T17:10:19.433Z,17.00
2023-04-21T17:12:46.483Z,11.10
2023-04-21T17:15:13.727Z,8.85
2023-04-21T17:17:43.194Z,7.95
2023-04-21T17:20:13.299Z,6.53
2023-04-21T17:22:41.809Z,6.10
2023-04-21T17:25:10.345Z,5.32
2023-04-21T17:27:38.872Z,7.15
2023-04-21T17:30:07.756Z,7.70
2023-04-21T17:32:35.344Z,7.05
2023-04-21T17:35:05.978Z,8.25
2023-04-21T17:37:34.338Z,8.48
2023-04-21T17:40:03.091Z,6.72
2023-04-21T17:42:30.821Z,6.80
2023-04-21T17:44:57.829Z,6.68
2023-04-21T17:47:24.993Z,7.32
2023-04-21T17:49:52.245Z,7.55
2023-04-21T17:52:19.355Z,6.00
2023-04-21T17:54:46.529Z,6.38
2023-04-21T17:57:13.609Z,5.97
2023-04-21T17:59:40.986Z,5.95
2023-04-21T18:02:08.230Z,5.70
2023-04-21T18:04:35.614Z,7.80
2023-04-21T18:07:03.564Z,6.85
2023-04-21T18:09:31.664Z,8.23
2023-04-21T18:11:58.980Z,4.78
2023-04-21T18:14:26.440Z,7.70
2023-04-21T18:16:53.886Z,9.35
2023-04-21T18:19:20.894Z,5.65
2023-04-21T18:21:48.069Z,6.25
2023-04-21T18:24:15.537Z,5.53
2023-04-21T18:26:43.204Z,5.25
2023-04-21T18:29:10.283Z,6.97
2023-04-21T18:31:37.404Z,5.22
2023-04-21T18:34:04.442Z,5.65
2023-04-21T18:36:33.292Z,7.45
2023-04-21T18:39:01.547Z,6.38
2023-04-21T18:41:28.723Z,6.82
2023-04-21T18:43:55.874Z,6.55
2023-04-21T18:46:23.242Z,7.93
2023-04-21T18:48:53.855Z,6.22
2023-04-21T18:51:21.122Z,6.65
2023-04-21T18:53:48.196Z,4.93
2023-04-21T18:56:15.935Z,5.35
2023-04-21T18:58:42.911Z,4.35
2023-04-21T19:01:10.113Z,5.50
2023-04-21T19:03:37.343Z,7.47
2023-04-21T19:06:04.479Z,5.93
2023-04-21T19:08:41.446Z,7.50
2023-04-21T19:11:15.522Z,8.23
2023-04-21T19:13:42.670Z,7.65
2023-04-21T19:16:16.556Z,4.95
2023-04-21T19:18:44.060Z,10.65
2023-04-21T19:21:15.818Z,6.47
2023-04-21T19:23:43.184Z,7.20
2023-04-21T19:26:13.211Z,8.70
2023-04-21T19:28:41.740Z,6.82
2023-04-21T19:31:09.639Z,7.60
2023-04-21T19:33:37.105Z,7.10
2023-04-21T19:36:04.561Z,7.18
2023-04-21T19:38:31.607Z,7.32
2023-04-21T19:40:58.683Z,7.10
2023-04-21T19:43:25.937Z,5.97
2023-04-21T19:45:53.800Z,6.97
2023-04-21T19:48:22.112Z,5.65
2023-04-21T19:50:49.190Z,11.50
2023-04-21T19:53:16.293Z,6.82
2023-04-21T19:55:44.429Z,5.30
2023-04-21T19:58:11.630Z,4.45
2023-04-21T20:00:38.851Z,5.28
2023-04-21T20:03:07.217Z,5.13
2023-04-21T20:05:34.548Z,4.00
2023-04-21T20:08:01.655Z,3.25
2023-04-21T20:10:28.756Z,3.83
2023-04-21T20:12:55.841Z,3.80
2023-04-21T20:15:23.121Z,4.15
2023-04-21T20:17:50.221Z,4.50
2023-04-21T20:20:17.658Z,3.78
2023-04-21T20:22:44.950Z,4.13
2023-04-21T20:25:12.954Z,3.22
2023-04-21T20:27:40.101Z,5.38
2023-04-21T20:30:10.502Z,5.50
2023-04-21T20:32:37.542Z,5.90
2023-04-21T20:35:05.567Z,5.00
2023-04-21T20:37:33.619Z,5.88
2023-04-21T20:40:08.397Z,4.15
2023-04-21T20:42:36.375Z,6.10
2023-04-21T20:45:03.882Z,6.50
2023-04-21T20:47:31.012Z,4.70
2023-04-21T20:49:58.998Z,5.57
2023-04-21T20:52:26.380Z,4.47
2023-04-21T20:54:53.453Z,5.38
2023-04-21T20:57:20.593Z,4.40
2023-04-21T20:59:47.756Z,5.63
2023-04-21T21:02:14.865Z,5.93
2023-04-21T21:04:42.418Z,6.00
2023-04-21T21:07:09.461Z,5.43
2023-04-21T21:09:36.712Z,6.82
2023-04-21T21:12:03.976Z,6.70
2023-04-21T21:14:31.594Z,5.20
2023-04-21T21:16:58.736Z,6.10
2023-04-21T21:19:25.818Z,8.13
2023-04-21T21:21:53.297Z,6.25
2023-04-21T21:24:20.342Z,5.25
2023-04-21T21:26:47.665Z,14.07
2023-04-21T21:29:15.078Z,6.07
2023-04-21T21:31:42.502Z,6.60
2023-04-21T21:34:09.690Z,6.95
2023-04-21T21:36:36.877Z,9.07
2023-04-21T21:39:04.055Z,7.88
2023-04-21T21:41:31.039Z,7.50
2023-04-21T21:43:58.039Z,7.90
2023-04-21T21:46:25.120Z,8.60
2023-04-21T21:48:52.307Z,8.05
2023-04-21T21:51:19.964Z,9.73
2023-04-21T21:53:47.033Z,9.88
2023-04-21T21:56:14.200Z,9.07
2023-04-21T21:58:41.314Z,7.20
2023-04-21T22:01:08.735Z,6.88
2023-04-21T22:03:36.279Z,8.60
2023-04-21T22:06:03.661Z,8.07
2023-04-21T22:08:30.643Z,9.80
2023-04-21T22:10:57.802Z,9.55
2023-04-21T22:13:24.817Z,9.95
2023-04-21T22:15:52.091Z,6.90
2023-04-21T22:18:19.411Z,6.80
2023-04-21T22:20:46.819Z,7.70
2023-04-21T22:23:13.955Z,9.63
2023-04-21T22:25:41.039Z,8.38
2023-04-21T22:28:08.065Z,6.88
2023-04-21T22:30:35.175Z,8.57
2023-04-21T22:33:02.430Z,8.90
2023-04-21T22:35:30.312Z,8.57
2023-04-21T22:37:57.320Z,7.70
2023-04-21T22:40:24.369Z,10.30
2023-04-21T22:42:51.480Z,7.97
2023-04-21T22:45:19.088Z,8.57
2023-04-21T22:47:46.148Z,7.27
2023-04-21T22:50:14.916Z,8.65
2023-04-21T22:52:42.282Z,7.77
2023-04-21T22:55:10.045Z,8.30
2023-04-21T22:57:37.733Z,10.10
2023-04-21T23:00:09.717Z,8.03
2023-04-21T23:02:37.076Z,9.00
2023-04-21T23:05:04.589Z,7.37
2023-04-21T23:07:31.699Z,8.57
2023-04-21T23:09:59.159Z,8.03
2023-04-21T23:12:26.300Z,8.40
2023-04-21T23:14:53.664Z,8.77
2023-04-21T23:17:21.497Z,8.35
2023-04-21T23:19:48.672Z,7.97
2023-04-21T23:22:15.755Z,9.70
2023-04-21T23:24:42.727Z,10.93
2023-04-21T23:27:09.882Z,9.07
2023-04-21T23:29:37.112Z,8.30
2023-04-21T23:32:04.593Z,9.57
2023-04-21T23:34:32.556Z,10.77
2023-04-21T23:36:59.526Z,9.50
2023-04-21T23:39:26.523Z,9.43
2023-04-21T23:41:55.267Z,8.50
2023-04-21T23:44:22.251Z,8.13
2023-04-21T23:46:49.305Z,8.33
2023-04-21T23:49:16.410Z,8.80
2023-04-21T23:51:43.510Z,9.07
2023-04-21T23:54:10.597Z,7.77
2023-04-21T23:56:37.541Z,8.60
2023-04-21T23:59:04.543Z,8.77
